Rock Creek, Texas
Current Conditions -  °F | °C
As of 2:51 PM on Thursday 27 Nov 2014 (Local Time) from KACT Reporting Station
Clear Clear  
Wind Chill: 60°   Ceiling: Unl
Heat Index: 60°   Visibility: 10mi
Dew Point: 23°   Wind: 3mph
Humidity: 24%   Direction: NA
Pressure: 30.44"   Gusts: NA
Location:  31.618°N, 97.2031°W
Report Text: KACT 272051Z VRB03KT 10SM CLR 16/M05 A3044 RMK AO2 SLP305 T01561050 56027
Loading
Personal Weather Stations






























Interactive Weather Map New forecast layout! Learn more

10-Day Weather Forecast

Advertisements
Track Severe Weather on mobile